createdAt,value
2019-06-01T00:01:44.638Z,5.40
2019-06-01T00:04:15.855Z,6.20
2019-06-01T00:06:46.987Z,6.57
2019-06-01T00:09:17.799Z,7.57
2019-06-01T00:11:49.682Z,7.87
2019-06-01T00:14:20.556Z,7.87
2019-06-01T00:16:51.491Z,6.90
2019-06-01T00:19:22.215Z,7.47
2019-06-01T00:21:54.223Z,8.03
2019-06-01T00:24:25.290Z,7.83
2019-06-01T00:26:56.108Z,7.90
2019-06-01T00:29:26.891Z,8.37
2019-06-01T00:31:57.807Z,9.33
2019-06-01T00:34:28.594Z,9.30
2019-06-01T00:36:59.384Z,8.07
2019-06-01T00:39:30.118Z,8.50
2019-06-01T00:42:02.517Z,8.60
2019-06-01T00:44:33.365Z,8.87
2019-06-01T00:47:04.453Z,9.93
2019-06-01T00:49:35.299Z,9.77
2019-06-01T00:52:06.203Z,10.60
2019-06-01T00:54:37.009Z,10.83
2019-06-01T00:57:07.833Z,11.73
2019-06-01T00:59:38.560Z,11.47
2019-06-01T01:02:09.489Z,11.63
2019-06-01T01:04:39.492Z,12.70
2019-06-01T01:07:10.331Z,12.07
2019-06-01T01:09:41.135Z,11.73
2019-06-01T01:12:11.919Z,12.43
2019-06-01T01:14:42.682Z,11.07
2019-06-01T01:17:13.475Z,11.63
2019-06-01T01:19:45.404Z,13.00
2019-06-01T01:22:16.500Z,12.17
2019-06-01T01:24:48.307Z,13.80
2019-06-01T01:27:19.224Z,12.60
2019-06-01T01:29:50.949Z,13.07
2019-06-01T01:32:21.925Z,13.13
2019-06-01T01:34:53.733Z,13.97
2019-06-01T01:37:24.731Z,15.30
2019-06-01T01:39:56.258Z,13.80
2019-06-01T01:42:27.406Z,14.50
2019-06-01T01:44:58.657Z,14.20
2019-06-01T01:47:29.497Z,14.83
2019-06-01T01:50:00.267Z,15.67
2019-06-01T01:52:31.127Z,16.13
2019-06-01T01:55:03.266Z,15.97
2019-06-01T01:57:34.410Z,14.73
2019-06-01T02:00:06.655Z,15.40
2019-06-01T02:02:37.721Z,15.73
2019-06-01T02:05:08.733Z,14.83
2019-06-01T02:07:39.537Z,15.90
2019-06-01T02:10:11.158Z,15.30
2019-06-01T02:12:45.250Z,15.97
2019-06-01T02:15:17.622Z,16.50
2019-06-01T02:17:48.527Z,15.90
2019-06-01T02:20:19.422Z,16.50
2019-06-01T02:22:50.304Z,16.00
2019-06-01T02:25:21.117Z,16.70
2019-06-01T02:27:53.119Z,18.23
2019-06-01T02:30:25.459Z,18.07
2019-06-01T02:32:58.286Z,16.90
2019-06-01T02:35:28.961Z,18.83
2019-06-01T02:38:00.359Z,17.87
2019-06-01T02:40:31.459Z,17.90
2019-06-01T02:43:04.231Z,18.50
2019-06-01T02:45:35.126Z,17.53
2019-06-01T02:48:06.897Z,16.60
2019-06-01T02:50:37.781Z,16.77
2019-06-01T02:53:08.773Z,17.93
2019-06-01T02:55:39.680Z,18.73
2019-06-01T02:58:10.632Z,18.40
2019-06-01T03:01:22.741Z,15.80
2019-06-01T03:03:57.446Z,16.70
2019-06-01T03:06:31.638Z,16.73
2019-06-01T03:09:06.718Z,17.93
2019-06-01T03:11:40.191Z,16.33
2019-06-01T03:14:13.230Z,18.60
2019-06-01T03:16:44.811Z,16.10
2019-06-01T03:19:19.056Z,16.93
2019-06-01T03:21:52.051Z,17.63
2019-06-01T03:24:26.939Z,16.93
2019-06-01T03:26:59.737Z,16.63
2019-06-01T03:29:36.510Z,15.77
2019-06-01T03:32:29.079Z,14.20
2019-06-01T03:34:39.852Z,13.93
2019-06-01T03:37:10.802Z,13.13
2019-06-01T03:39:42.254Z,12.57
2019-06-01T03:42:13.060Z,12.77
2019-06-01T03:44:43.978Z,11.90
2019-06-01T03:47:14.909Z,12.00
2019-06-01T03:49:45.767Z,11.43
2019-06-01T03:52:16.632Z,12.37
2019-06-01T03:54:48.707Z,12.17
2019-06-01T03:57:20.453Z,13.23
2019-06-01T03:59:51.451Z,11.50
2019-06-01T04:02:32.828Z,12.20
2019-06-01T04:04:54.928Z,10.33
2019-06-01T04:07:25.866Z,11.43
2019-06-01T04:09:56.746Z,9.87
2019-06-01T04:12:27.632Z,9.97
2019-06-01T04:14:58.481Z,10.03
2019-06-01T04:17:32.717Z,9.13
2019-06-01T04:20:02.123Z,10.77
2019-06-01T04:22:33.245Z,9.67
2019-06-01T04:25:05.962Z,9.13
2019-06-01T04:27:36.993Z,10.00
2019-06-01T04:30:09.418Z,10.60
2019-06-01T04:32:49.965Z,9.83
2019-06-01T04:35:13.965Z,10.47
2019-06-01T04:37:44.903Z,10.03
2019-06-01T04:40:15.908Z,10.10
2019-06-01T04:42:46.773Z,10.73
2019-06-01T04:45:17.652Z,10.60
2019-06-01T04:47:48.407Z,10.93
2019-06-01T04:50:19.247Z,10.87
2019-06-01T04:52:50.208Z,10.80
2019-06-01T04:55:21.160Z,10.20
2019-06-01T04:57:52.029Z,9.57
2019-06-01T05:00:27.757Z,9.87
2019-06-01T05:03:04.823Z,8.90
2019-06-01T05:05:29.121Z,9.00
2019-06-01T05:08:00.030Z,8.87
2019-06-01T05:10:30.865Z,9.13
2019-06-01T05:13:01.844Z,8.67
2019-06-01T05:15:33.645Z,7.83
2019-06-01T05:18:01.573Z,7.77
2019-06-01T05:20:33.355Z,8.00
2019-06-01T05:23:13.272Z,6.90
2019-06-01T05:25:44.914Z,7.63
2019-06-01T05:28:17.459Z,7.13
2019-06-01T05:30:48.486Z,7.80
2019-06-01T05:35:50.365Z,6.63
2019-06-01T05:38:21.123Z,6.97
2019-06-01T05:40:51.941Z,6.23
2019-06-01T05:43:22.672Z,6.37
2019-06-01T05:45:54.308Z,6.60
2019-06-01T05:48:30.403Z,6.70
2019-06-01T05:50:59.074Z,6.40
2019-06-01T05:53:29.907Z,5.83
2019-06-01T05:56:00.874Z,5.67
2019-06-01T05:58:31.744Z,5.23
2019-06-01T06:01:02.538Z,5.30
2019-06-01T06:03:40.335Z,4.60
2019-06-01T06:06:05.958Z,4.40
2019-06-01T06:11:14.924Z,4.47
2019-06-01T06:13:46.041Z,4.70
2019-06-01T06:16:17.994Z,4.63
2019-06-01T06:18:49.114Z,4.70
2019-06-01T06:21:20.284Z,5.50
2019-06-01T06:23:51.846Z,5.37
2019-06-01T06:26:23.606Z,5.33
2019-06-01T06:28:55.089Z,4.60
2019-06-01T06:31:26.296Z,4.43
2019-06-01T06:33:58.096Z,4.87
2019-06-01T06:36:29.784Z,4.60
2019-06-01T06:39:04.604Z,5.10
2019-06-01T06:41:34.604Z,4.53
2019-06-01T06:44:06.268Z,4.73
2019-06-01T06:46:38.155Z,5.30
2019-06-01T06:49:10.176Z,4.80
2019-06-01T06:51:41.972Z,4.60
2019-06-01T06:54:14.926Z,5.03
2019-06-01T06:56:47.821Z,4.87
2019-06-01T06:59:20.390Z,4.57
2019-06-01T07:01:52.125Z,4.50
2019-06-01T07:04:23.601Z,4.67
2019-06-01T07:06:56.447Z,4.50
2019-06-01T07:09:28.251Z,3.97
2019-06-01T07:12:00.335Z,4.40
2019-06-01T07:14:31.689Z,4.83
2019-06-01T07:17:02.703Z,4.63
2019-06-01T07:19:33.543Z,4.73
2019-06-01T07:22:04.656Z,4.30
2019-06-01T07:24:35.408Z,4.00
2019-06-01T07:27:06.276Z,4.47
2019-06-01T07:29:37.016Z,4.80
2019-06-01T07:32:08.030Z,4.00
2019-06-01T07:34:42.073Z,4.53
2019-06-01T07:37:11.788Z,4.63
2019-06-01T07:39:42.718Z,4.30
2019-06-01T07:42:14.474Z,4.87
2019-06-01T07:44:46.498Z,4.70
2019-06-01T07:47:17.365Z,4.60
2019-06-01T07:49:49.051Z,4.37
2019-06-01T07:52:20.229Z,4.13
2019-06-01T07:54:51.034Z,4.20
2019-06-01T07:57:22.015Z,3.90
2019-06-01T07:59:52.810Z,4.20
2019-06-01T08:02:26.299Z,4.10
2019-06-01T08:04:56.162Z,3.80
2019-06-01T08:07:27.684Z,3.83
2019-06-01T08:09:58.843Z,4.03
2019-06-01T08:12:29.717Z,3.67
2019-06-01T08:15:00.587Z,2.87
2019-06-01T08:17:32.246Z,3.10
2019-06-01T08:20:03.124Z,3.40
2019-06-01T08:22:39.487Z,3.20
2019-06-01T08:25:10.375Z,2.93
2019-06-01T08:27:42.358Z,2.83
2019-06-01T08:30:13.388Z,2.90
2019-06-01T08:32:44.452Z,3.40
2019-06-01T08:35:15.536Z,2.90
2019-06-01T08:37:46.466Z,2.83
2019-06-01T08:40:18.715Z,2.70
2019-06-01T08:42:49.676Z,2.63
2019-06-01T08:45:20.624Z,2.70
2019-06-01T08:47:51.710Z,2.70
2019-06-01T08:50:23.766Z,2.80
2019-06-01T08:52:54.770Z,3.47
2019-06-01T08:55:26.110Z,3.37
2019-06-01T08:57:56.928Z,3.63
2019-06-01T09:00:30.617Z,3.40
2019-06-01T09:03:01.658Z,3.63
2019-06-01T09:05:33.146Z,3.33
2019-06-01T09:08:04.265Z,4.30
2019-06-01T09:10:35.960Z,4.30
2019-06-01T09:13:07.555Z,4.40
2019-06-01T09:15:38.319Z,4.47
2019-06-01T09:18:10.256Z,4.40
2019-06-01T09:20:41.011Z,4.60
2019-06-01T09:23:12.116Z,4.57
2019-06-01T09:25:43.963Z,4.57
2019-06-01T09:28:15.999Z,4.40
2019-06-01T09:30:46.966Z,4.20
2019-06-01T09:33:17.961Z,4.90
2019-06-01T09:35:55.977Z,4.47
2019-06-01T09:38:21.453Z,5.03
2019-06-01T09:40:52.228Z,4.10
2019-06-01T09:43:23.172Z,4.90
2019-06-01T09:45:54.041Z,4.47
2019-06-01T09:48:27.107Z,4.43
2019-06-01T09:50:58.064Z,4.80
2019-06-01T09:53:29.373Z,4.90
2019-06-01T09:56:01.446Z,4.30
2019-06-01T09:58:32.385Z,4.43
2019-06-01T10:01:03.154Z,5.07
2019-06-01T10:03:34.506Z,4.80
2019-06-01T10:06:05.744Z,5.33
2019-06-01T10:08:38.050Z,5.23
2019-06-01T10:11:09.084Z,5.20
2019-06-01T10:13:39.938Z,4.53
2019-06-01T10:16:10.811Z,4.67
2019-06-01T10:18:42.959Z,5.73
2019-06-01T10:21:14.113Z,5.20
2019-06-01T10:23:49.124Z,5.20
2019-06-01T10:26:17.804Z,4.83
2019-06-01T10:28:48.556Z,5.17
2019-06-01T10:31:19.516Z,5.23
2019-06-01T10:33:51.612Z,5.43
2019-06-01T10:36:23.113Z,5.27
2019-06-01T10:38:54.482Z,7.73
2019-06-01T10:41:25.586Z,7.80
2019-06-01T10:43:56.413Z,6.77
2019-06-01T10:46:42.164Z,6.33
2019-06-01T10:54:45.886Z,4.70
2019-06-01T10:57:16.741Z,5.17
2019-06-01T10:59:47.625Z,5.80
2019-06-01T11:02:18.597Z,5.20
2019-06-01T11:04:49.523Z,4.80
2019-06-01T11:07:20.510Z,5.37
2019-06-01T11:09:51.384Z,5.70
2019-06-01T11:12:22.489Z,4.93
2019-06-01T11:14:53.456Z,5.57
2019-06-01T11:17:24.305Z,4.90
2019-06-01T11:19:55.247Z,5.47
2019-06-01T11:22:26.178Z,5.30
2019-06-01T11:24:57.287Z,5.07
2019-06-01T11:27:28.166Z,5.30
2019-06-01T11:29:59.089Z,5.30
2019-06-01T11:32:29.964Z,5.07
2019-06-01T11:35:00.759Z,5.23
2019-06-01T11:37:31.538Z,5.30
2019-06-01T11:40:02.424Z,5.27
2019-06-01T11:42:34.930Z,5.23
2019-06-01T11:45:09.887Z,5.07
2019-06-01T11:47:40.993Z,4.93
2019-06-01T11:50:12.320Z,4.33
2019-06-01T11:52:43.316Z,5.00
2019-06-01T11:55:15.445Z,4.20
2019-06-01T11:57:46.222Z,4.57
2019-06-01T12:00:17.501Z,4.80
2019-06-01T12:02:48.401Z,4.70
2019-06-01T12:05:19.572Z,5.17
2019-06-01T12:07:50.698Z,4.63
2019-06-01T12:10:21.596Z,4.97
2019-06-01T12:12:52.469Z,3.97
2019-06-01T12:15:26.520Z,5.37
2019-06-01T12:17:56.103Z,4.57
2019-06-01T12:20:27.205Z,4.47
2019-06-01T12:22:57.935Z,4.13
2019-06-01T12:25:29.022Z,5.20
2019-06-01T12:27:59.864Z,4.80
2019-06-01T12:30:30.808Z,4.77
2019-06-01T12:33:01.767Z,4.97
2019-06-01T12:35:32.647Z,4.37
2019-06-01T12:38:06.905Z,4.40
2019-06-01T12:40:36.004Z,5.00
2019-06-01T12:43:08.029Z,4.73
2019-06-01T12:45:39.681Z,4.80
2019-06-01T12:48:10.819Z,5.13
2019-06-01T12:50:42.153Z,4.90
2019-06-01T12:53:13.277Z,4.93
2019-06-01T12:55:45.202Z,4.87
2019-06-01T12:58:16.252Z,4.83
2019-06-01T13:00:48.256Z,4.70
2019-06-01T13:03:20.537Z,4.07
2019-06-01T13:05:51.927Z,4.67
2019-06-01T13:08:23.809Z,4.80
2019-06-01T13:10:55.700Z,4.93
2019-06-01T13:13:26.450Z,5.07
2019-06-01T13:15:57.313Z,4.93
2019-06-01T13:18:28.174Z,5.27
2019-06-01T13:20:59.092Z,5.10
2019-06-01T13:23:29.871Z,5.60
2019-06-01T13:26:00.738Z,4.90
2019-06-01T13:28:38.171Z,5.60
2019-06-01T13:31:04.261Z,5.50
2019-06-01T13:33:35.295Z,5.50
2019-06-01T13:36:06.356Z,4.40
2019-06-01T13:38:37.113Z,4.67
2019-06-01T13:41:07.908Z,4.80
2019-06-01T13:43:38.776Z,5.30
2019-06-01T13:46:09.669Z,5.50
2019-06-01T13:51:10.279Z,5.50
2019-06-01T13:53:41.006Z,6.03
2019-06-01T13:56:11.900Z,6.30
2019-06-01T13:58:44.153Z,5.53
2019-06-01T14:01:15.469Z,6.10
2019-06-01T14:03:47.207Z,6.33
2019-06-01T14:06:18.160Z,6.90
2019-06-01T14:08:49.114Z,6.33
2019-06-01T14:11:20.252Z,6.30
2019-06-01T14:13:52.035Z,6.10
2019-06-01T14:16:23.191Z,5.93
2019-06-01T14:18:53.968Z,6.20
2019-06-01T14:21:24.818Z,5.90
2019-06-01T14:23:56.110Z,5.77
2019-06-01T14:26:27.248Z,5.93
2019-06-01T14:28:58.084Z,5.43
2019-06-01T14:31:29.127Z,4.93
2019-06-01T14:33:59.972Z,4.70
2019-06-01T14:36:30.937Z,4.77
2019-06-01T14:39:01.709Z,5.07
2019-06-01T14:41:36.789Z,7.93
2019-06-01T14:44:07.771Z,6.30
2019-06-01T14:46:53.429Z,6.37
2019-06-01T14:49:12.371Z,7.50
2019-06-01T14:51:43.211Z,6.10
2019-06-01T14:54:14.234Z,6.07
2019-06-01T14:56:45.233Z,6.07
2019-06-01T14:59:16.158Z,6.40
2019-06-01T15:01:48.184Z,6.20
2019-06-01T15:04:19.394Z,5.63
2019-06-01T15:06:50.310Z,7.20
2019-06-01T15:09:21.100Z,9.07
2019-06-01T15:11:52.383Z,11.47
2019-06-01T15:14:24.875Z,12.70
2019-06-01T15:16:56.325Z,10.40
2019-06-01T15:19:28.678Z,11.00
2019-06-01T15:21:59.814Z,12.23
2019-06-01T15:24:30.909Z,12.77
2019-06-01T15:27:03.038Z,12.13
2019-06-01T15:29:34.286Z,11.27
2019-06-01T15:32:05.639Z,11.43
2019-06-01T15:34:36.739Z,11.50
2019-06-01T15:37:07.800Z,12.50
2019-06-01T15:39:38.917Z,11.60
2019-06-01T15:42:10.048Z,13.27
2019-06-01T15:44:41.135Z,15.33
2019-06-01T15:47:12.262Z,14.57
2019-06-01T15:49:43.491Z,14.67
2019-06-01T15:52:14.697Z,13.77
2019-06-01T15:54:45.755Z,13.57
2019-06-01T15:57:16.924Z,14.60
2019-06-01T15:59:47.788Z,12.93
2019-06-01T16:02:18.857Z,13.00
2019-06-01T16:07:19.145Z,13.03
2019-06-01T16:09:50.072Z,12.30
2019-06-01T16:12:21.319Z,12.83
2019-06-01T16:14:53.341Z,12.77
2019-06-01T16:17:37.482Z,13.20
2019-06-01T16:20:11.693Z,11.90
2019-06-01T16:22:42.726Z,12.07
2019-06-01T16:25:15.231Z,12.20
2019-06-01T16:27:46.723Z,11.70
2019-06-01T16:30:18.235Z,11.77
2019-06-01T16:32:49.713Z,12.23
2019-06-01T16:35:22.210Z,10.97
2019-06-01T16:37:54.842Z,10.30
2019-06-01T16:40:26.592Z,9.97
2019-06-01T16:42:57.518Z,10.23
2019-06-01T16:45:29.130Z,9.70
2019-06-01T16:48:01.655Z,8.93
2019-06-01T16:50:33.472Z,9.50
2019-06-01T16:53:04.609Z,8.87
2019-06-01T16:55:35.929Z,9.53
2019-06-01T16:58:07.480Z,10.23
2019-06-01T17:00:38.891Z,9.50
2019-06-01T17:03:11.316Z,9.53
2019-06-01T17:05:42.359Z,9.63
2019-06-01T17:08:13.803Z,9.50
2019-06-01T17:10:44.699Z,8.80
2019-06-01T17:13:16.312Z,9.43
2019-06-01T17:15:47.205Z,8.73
2019-06-01T17:18:17.649Z,8.90
2019-06-01T17:20:49.604Z,8.77
2019-06-01T17:23:26.701Z,9.10
2019-06-01T17:25:53.746Z,8.30
2019-06-01T17:28:25.296Z,9.27
2019-06-01T17:30:56.239Z,11.10
2019-06-01T17:33:27.150Z,12.60
2019-06-01T17:35:58.640Z,12.37
2019-06-01T17:38:29.482Z,14.00
2019-06-01T17:41:02.132Z,14.00
2019-06-01T17:43:33.563Z,11.13
2019-06-01T17:46:05.780Z,9.37
2019-06-01T17:48:36.860Z,8.77
2019-06-01T17:51:08.599Z,8.60
2019-06-01T17:53:39.657Z,9.40
2019-06-01T17:56:10.592Z,10.30
2019-06-01T17:58:41.650Z,9.60
2019-06-01T18:01:12.992Z,10.20
2019-06-01T18:03:44.958Z,40.10
2019-06-01T18:06:17.276Z,91.60
2019-06-01T18:08:49.535Z,14.13
2019-06-01T18:11:21.916Z,19.37
2019-06-01T18:13:53.624Z,136.30
2019-06-01T18:16:24.930Z,76.23
2019-06-01T18:18:56.776Z,24.07
2019-06-01T18:21:27.883Z,13.83
2019-06-01T18:24:02.694Z,12.13
2019-06-01T18:26:32.627Z,12.70
2019-06-01T18:29:04.511Z,12.10
2019-06-01T18:31:36.662Z,11.97
2019-06-01T18:34:09.698Z,10.87
2019-06-01T18:36:40.621Z,12.03
2019-06-01T18:39:13.619Z,12.13
2019-06-01T18:41:50.338Z,12.80
2019-06-01T18:44:56.415Z,12.60
2019-06-01T18:47:40.502Z,11.73
2019-06-01T18:50:14.716Z,15.87
2019-06-01T18:52:44.271Z,14.13
2019-06-01T18:55:16.455Z,15.20
2019-06-01T18:57:50.940Z,16.50
2019-06-01T19:02:50.924Z,15.60
2019-06-01T19:05:22.638Z,15.70
2019-06-01T19:07:54.190Z,17.30
2019-06-01T19:10:25.873Z,16.80
2019-06-01T19:12:56.770Z,16.97
2019-06-01T19:15:28.921Z,16.60
2019-06-01T19:18:00.087Z,17.40
2019-06-01T19:20:33.157Z,18.03
2019-06-01T19:23:03.653Z,19.47
2019-06-01T19:25:34.580Z,17.83
2019-06-01T19:28:06.702Z,17.90
2019-06-01T19:30:43.617Z,21.13
2019-06-01T19:35:42.228Z,18.87
2019-06-01T19:38:13.433Z,19.67
2019-06-01T19:40:44.726Z,20.60
2019-06-01T19:43:15.802Z,20.10
2019-06-01T19:45:46.717Z,20.17
2019-06-01T19:48:18.896Z,18.47
2019-06-01T19:50:50.157Z,18.90
2019-06-01T19:53:21.201Z,20.50
2019-06-01T19:55:52.288Z,20.30
2019-06-01T19:58:27.135Z,21.30
2019-06-01T20:00:58.105Z,18.30
2019-06-01T20:03:29.337Z,21.47
2019-06-01T20:06:00.282Z,21.57
2019-06-01T20:08:31.176Z,19.60
2019-06-01T20:11:02.749Z,21.77
2019-06-01T20:16:12.281Z,21.93
2019-06-01T20:18:43.640Z,21.87
2019-06-01T20:21:15.900Z,25.17
2019-06-01T20:23:47.494Z,23.90
2019-06-01T20:26:19.465Z,25.47
2019-06-01T20:28:50.842Z,29.70
2019-06-01T20:31:22.293Z,28.87
2019-06-01T20:33:56.223Z,37.67
2019-06-01T20:36:26.359Z,38.33
2019-06-01T20:38:57.574Z,39.20
2019-06-01T20:41:28.943Z,39.03
2019-06-01T20:43:59.913Z,37.30
2019-06-01T20:46:31.157Z,37.17
2019-06-01T20:49:03.686Z,40.03
2019-06-01T20:51:34.920Z,36.70
2019-06-01T20:54:06.126Z,36.17
2019-06-01T20:56:37.138Z,43.67
2019-06-01T20:59:08.421Z,39.03
2019-06-01T21:01:40.007Z,37.60
2019-06-01T21:04:11.630Z,38.00
2019-06-01T21:06:42.857Z,36.87
2019-06-01T21:09:13.923Z,39.83
2019-06-01T21:11:45.157Z,46.80
2019-06-01T21:14:16.175Z,45.57
2019-06-01T21:16:47.433Z,46.53
2019-06-01T21:19:18.397Z,48.23
2019-06-01T21:21:49.593Z,49.27
2019-06-01T21:24:21.154Z,44.20
2019-06-01T21:26:52.461Z,39.10
2019-06-01T21:29:25.066Z,42.00
2019-06-01T21:31:57.808Z,44.17
2019-06-01T21:34:29.107Z,34.60
2019-06-01T21:37:00.313Z,39.67
2019-06-01T21:39:31.838Z,46.30
2019-06-01T21:42:03.348Z,38.60
2019-06-01T21:44:34.671Z,38.90
2019-06-01T21:47:06.109Z,36.30
2019-06-01T21:49:38.919Z,38.23
2019-06-01T21:52:10.383Z,39.77
2019-06-01T21:54:41.700Z,38.50
2019-06-01T21:57:12.916Z,39.33
2019-06-01T21:59:44.038Z,40.47
2019-06-01T22:02:16.853Z,37.70
2019-06-01T22:04:48.371Z,39.30
2019-06-01T22:07:21.146Z,40.23
2019-06-01T22:09:52.649Z,39.77
2019-06-01T22:12:23.829Z,39.47
2019-06-01T22:14:55.899Z,42.17
2019-06-01T22:17:27.912Z,40.77
2019-06-01T22:19:59.021Z,40.97
2019-06-01T22:22:30.300Z,41.87
2019-06-01T22:25:01.291Z,41.13
2019-06-01T22:27:34.640Z,42.20
2019-06-01T22:30:07.255Z,41.47
2019-06-01T22:32:39.396Z,40.47
2019-06-01T22:35:10.587Z,42.80
2019-06-01T22:37:42.220Z,40.60
2019-06-01T22:40:13.800Z,40.77
2019-06-01T22:42:46.523Z,41.47
2019-06-01T22:45:18.415Z,40.83
2019-06-01T22:47:51.201Z,39.60
2019-06-01T22:50:22.939Z,38.00
2019-06-01T22:52:54.749Z,38.97
2019-06-01T22:55:26.462Z,38.27
2019-06-01T22:57:57.549Z,38.23
2019-06-01T23:00:29.847Z,39.00
2019-06-01T23:03:01.586Z,37.03
2019-06-01T23:05:33.339Z,36.83
2019-06-01T23:08:05.134Z,36.87
2019-06-01T23:10:36.826Z,33.70
2019-06-01T23:13:08.445Z,33.10
2019-06-01T23:15:40.183Z,31.77
2019-06-01T23:18:11.407Z,32.37
2019-06-01T23:20:43.264Z,32.37
2019-06-01T23:23:14.873Z,34.13
2019-06-01T23:25:47.566Z,31.03
2019-06-01T23:28:18.619Z,28.97
2019-06-01T23:30:49.469Z,28.90
2019-06-01T23:33:20.771Z,27.37
2019-06-01T23:35:52.858Z,27.33
2019-06-01T23:38:24.552Z,27.97
2019-06-01T23:40:56.685Z,26.30
2019-06-01T23:43:28.863Z,25.70
2019-06-01T23:46:00.092Z,25.53
2019-06-01T23:48:31.352Z,24.60
2019-06-01T23:51:02.410Z,23.03
2019-06-01T23:53:33.825Z,25.27
2019-06-01T23:56:05.609Z,24.77
2019-06-01T23:58:36.639Z,24.70
